sensor_id;sensor_type;location;lat;lon;timestamp;P1;durP1;ratioP1;P2;durP2;ratioP2
7383;SDS011;3733;47.994;8.820;2022-10-16T00:00:37;26.30;;;5.40;;
7383;SDS011;3733;47.994;8.820;2022-10-16T00:03:04;9.33;;;5.13;;
7383;SDS011;3733;47.994;8.820;2022-10-16T00:05:31;11.10;;;5.43;;
7383;SDS011;3733;47.994;8.820;2022-10-16T00:07:57;14.67;;;5.60;;
7383;SDS011;3733;47.994;8.820;2022-10-16T00:10:23;9.23;;;5.83;;
7383;SDS011;3733;47.994;8.820;2022-10-16T00:12:48;16.53;;;5.90;;
7383;SDS011;3733;47.994;8.820;2022-10-16T00:15:14;35.43;;;7.07;;
7383;SDS011;3733;47.994;8.820;2022-10-16T00:17:40;32.17;;;7.70;;
7383;SDS011;3733;47.994;8.820;2022-10-16T00:20:06;35.80;;;6.53;;
7383;SDS011;3733;47.994;8.820;2022-10-16T00:22:32;15.57;;;5.80;;
7383;SDS011;3733;47.994;8.820;2022-10-16T00:24:58;23.23;;;6.20;;
7383;SDS011;3733;47.994;8.820;2022-10-16T00:27:23;7.60;;;5.30;;
7383;SDS011;3733;47.994;8.820;2022-10-16T00:29:49;13.40;;;5.10;;
7383;SDS011;3733;47.994;8.820;2022-10-16T00:32:18;7.50;;;5.30;;
7383;SDS011;3733;47.994;8.820;2022-10-16T00:34:45;20.40;;;5.23;;
7383;SDS011;3733;47.994;8.820;2022-10-16T00:37:11;11.40;;;5.60;;
7383;SDS011;3733;47.994;8.820;2022-10-16T00:39:36;11.73;;;5.87;;
7383;SDS011;3733;47.994;8.820;2022-10-16T00:42:02;8.70;;;4.90;;
7383;SDS011;3733;47.994;8.820;2022-10-16T00:44:48;8.07;;;5.13;;
7383;SDS011;3733;47.994;8.820;2022-10-16T00:50:02;8.57;;;4.87;;
7383;SDS011;3733;47.994;8.820;2022-10-16T00:52:35;6.90;;;4.17;;
7383;SDS011;3733;47.994;8.820;2022-10-16T00:55:04;11.20;;;5.10;;
7383;SDS011;3733;47.994;8.820;2022-10-16T00:57:31;4.87;;;4.00;;
7383;SDS011;3733;47.994;8.820;2022-10-16T00:59:57;7.10;;;4.20;;
7383;SDS011;3733;47.994;8.820;2022-10-16T01:02:23;5.60;;;4.00;;
7383;SDS011;3733;47.994;8.820;2022-10-16T01:04:50;6.70;;;3.80;;
7383;SDS011;3733;47.994;8.820;2022-10-16T01:12:59;7.70;;;4.10;;
7383;SDS011;3733;47.994;8.820;2022-10-16T01:15:36;11.87;;;4.80;;
7383;SDS011;3733;47.994;8.820;2022-10-16T01:18:08;9.20;;;5.33;;
7383;SDS011;3733;47.994;8.820;2022-10-16T01:23:53;10.77;;;5.50;;
7383;SDS011;3733;47.994;8.820;2022-10-16T01:31:32;4.83;;;4.30;;
7383;SDS011;3733;47.994;8.820;2022-10-16T01:34:12;7.43;;;4.77;;
7383;SDS011;3733;47.994;8.820;2022-10-16T01:36:42;9.20;;;4.63;;
7383;SDS011;3733;47.994;8.820;2022-10-16T01:39:12;7.23;;;4.70;;
7383;SDS011;3733;47.994;8.820;2022-10-16T01:41:48;7.30;;;4.97;;
7383;SDS011;3733;47.994;8.820;2022-10-16T01:44:20;6.50;;;4.37;;
7383;SDS011;3733;47.994;8.820;2022-10-16T01:46:50;6.90;;;4.20;;
7383;SDS011;3733;47.994;8.820;2022-10-16T01:49:18;7.50;;;4.33;;
7383;SDS011;3733;47.994;8.820;2022-10-16T01:51:45;6.23;;;4.60;;
7383;SDS011;3733;47.994;8.820;2022-10-16T01:54:14;6.47;;;4.63;;
7383;SDS011;3733;47.994;8.820;2022-10-16T01:56:43;5.17;;;4.57;;
7383;SDS011;3733;47.994;8.820;2022-10-16T01:59:12;6.30;;;4.30;;
7383;SDS011;3733;47.994;8.820;2022-10-16T02:01:42;7.33;;;4.30;;
7383;SDS011;3733;47.994;8.820;2022-10-16T02:04:56;9.73;;;4.20;;
7383;SDS011;3733;47.994;8.820;2022-10-16T02:07:07;7.53;;;4.40;;
7383;SDS011;3733;47.994;8.820;2022-10-16T02:09:33;8.20;;;4.47;;
7383;SDS011;3733;47.994;8.820;2022-10-16T02:12:01;10.93;;;4.70;;
7383;SDS011;3733;47.994;8.820;2022-10-16T02:14:33;8.80;;;4.97;;
7383;SDS011;3733;47.994;8.820;2022-10-16T02:17:09;6.63;;;4.70;;
7383;SDS011;3733;47.994;8.820;2022-10-16T02:19:40;12.13;;;5.20;;
7383;SDS011;3733;47.994;8.820;2022-10-16T02:22:08;8.97;;;4.60;;
7383;SDS011;3733;47.994;8.820;2022-10-16T02:27:21;8.03;;;3.67;;
7383;SDS011;3733;47.994;8.820;2022-10-16T02:30:04;4.20;;;3.77;;
7383;SDS011;3733;47.994;8.820;2022-10-16T02:32:37;6.93;;;4.30;;
7383;SDS011;3733;47.994;8.820;2022-10-16T02:35:06;14.40;;;4.30;;
7383;SDS011;3733;47.994;8.820;2022-10-16T02:37:33;10.50;;;4.00;;
7383;SDS011;3733;47.994;8.820;2022-10-16T02:39:59;7.23;;;3.87;;
7383;SDS011;3733;47.994;8.820;2022-10-16T02:42:32;7.43;;;4.23;;
7383;SDS011;3733;47.994;8.820;2022-10-16T02:44:59;7.07;;;3.50;;
7383;SDS011;3733;47.994;8.820;2022-10-16T02:47:24;7.27;;;3.50;;
7383;SDS011;3733;47.994;8.820;2022-10-16T02:49:50;6.50;;;3.60;;
7383;SDS011;3733;47.994;8.820;2022-10-16T02:52:15;4.70;;;4.10;;
7383;SDS011;3733;47.994;8.820;2022-10-16T02:54:41;5.43;;;4.00;;
7383;SDS011;3733;47.994;8.820;2022-10-16T02:57:07;4.50;;;3.60;;
7383;SDS011;3733;47.994;8.820;2022-10-16T02:59:32;6.63;;;3.03;;
7383;SDS011;3733;47.994;8.820;2022-10-16T03:01:58;10.13;;;3.30;;
7383;SDS011;3733;47.994;8.820;2022-10-16T03:04:23;7.50;;;3.03;;
7383;SDS011;3733;47.994;8.820;2022-10-16T03:06:49;3.97;;;3.03;;
7383;SDS011;3733;47.994;8.820;2022-10-16T03:09:14;8.67;;;3.00;;
7383;SDS011;3733;47.994;8.820;2022-10-16T03:11:40;3.10;;;2.80;;
7383;SDS011;3733;47.994;8.820;2022-10-16T03:14:06;3.50;;;2.90;;
7383;SDS011;3733;47.994;8.820;2022-10-16T03:16:32;5.80;;;3.47;;
7383;SDS011;3733;47.994;8.820;2022-10-16T03:18:57;7.93;;;3.70;;
7383;SDS011;3733;47.994;8.820;2022-10-16T03:21:23;8.53;;;3.47;;
7383;SDS011;3733;47.994;8.820;2022-10-16T03:23:49;4.87;;;3.70;;
7383;SDS011;3733;47.994;8.820;2022-10-16T03:26:15;5.30;;;4.13;;
7383;SDS011;3733;47.994;8.820;2022-10-16T03:28:41;5.20;;;3.40;;
7383;SDS011;3733;47.994;8.820;2022-10-16T03:31:06;3.90;;;3.50;;
7383;SDS011;3733;47.994;8.820;2022-10-16T03:33:33;6.50;;;4.00;;
7383;SDS011;3733;47.994;8.820;2022-10-16T03:35:58;7.07;;;3.80;;
7383;SDS011;3733;47.994;8.820;2022-10-16T03:38:24;9.33;;;4.27;;
7383;SDS011;3733;47.994;8.820;2022-10-16T03:40:49;8.50;;;4.30;;
7383;SDS011;3733;47.994;8.820;2022-10-16T03:43:15;5.23;;;3.90;;
7383;SDS011;3733;47.994;8.820;2022-10-16T03:45:41;4.67;;;4.17;;
7383;SDS011;3733;47.994;8.820;2022-10-16T03:48:06;5.20;;;4.40;;
7383;SDS011;3733;47.994;8.820;2022-10-16T03:50:32;5.50;;;4.40;;
7383;SDS011;3733;47.994;8.820;2022-10-16T03:52:57;7.10;;;4.47;;
7383;SDS011;3733;47.994;8.820;2022-10-16T03:55:23;10.97;;;4.90;;
7383;SDS011;3733;47.994;8.820;2022-10-16T03:57:49;7.53;;;4.80;;
7383;SDS011;3733;47.994;8.820;2022-10-16T04:00:14;8.80;;;5.10;;
7383;SDS011;3733;47.994;8.820;2022-10-16T04:02:40;9.10;;;4.77;;
7383;SDS011;3733;47.994;8.820;2022-10-16T04:05:05;23.80;;;5.63;;
7383;SDS011;3733;47.994;8.820;2022-10-16T04:07:31;29.00;;;6.90;;
7383;SDS011;3733;47.994;8.820;2022-10-16T04:09:57;6.83;;;5.00;;
7383;SDS011;3733;47.994;8.820;2022-10-16T04:12:24;14.40;;;5.30;;
7383;SDS011;3733;47.994;8.820;2022-10-16T04:14:50;6.33;;;5.03;;
7383;SDS011;3733;47.994;8.820;2022-10-16T04:17:16;10.20;;;5.00;;
7383;SDS011;3733;47.994;8.820;2022-10-16T04:19:41;8.60;;;4.80;;
7383;SDS011;3733;47.994;8.820;2022-10-16T04:22:07;7.53;;;4.77;;
7383;SDS011;3733;47.994;8.820;2022-10-16T04:24:33;9.57;;;4.03;;
7383;SDS011;3733;47.994;8.820;2022-10-16T04:26:58;9.33;;;6.10;;
7383;SDS011;3733;47.994;8.820;2022-10-16T04:29:24;7.00;;;4.47;;
7383;SDS011;3733;47.994;8.820;2022-10-16T04:31:50;8.33;;;4.50;;
7383;SDS011;3733;47.994;8.820;2022-10-16T04:34:15;12.77;;;6.40;;
7383;SDS011;3733;47.994;8.820;2022-10-16T04:36:41;16.20;;;8.10;;
7383;SDS011;3733;47.994;8.820;2022-10-16T04:39:06;7.10;;;5.27;;
7383;SDS011;3733;47.994;8.820;2022-10-16T04:41:32;6.40;;;4.70;;
7383;SDS011;3733;47.994;8.820;2022-10-16T04:43:58;5.63;;;3.70;;
7383;SDS011;3733;47.994;8.820;2022-10-16T04:46:23;9.67;;;3.97;;
7383;SDS011;3733;47.994;8.820;2022-10-16T04:48:49;6.10;;;4.17;;
7383;SDS011;3733;47.994;8.820;2022-10-16T04:51:15;4.90;;;4.37;;
7383;SDS011;3733;47.994;8.820;2022-10-16T04:53:40;7.67;;;4.40;;
7383;SDS011;3733;47.994;8.820;2022-10-16T04:56:06;9.87;;;4.57;;
7383;SDS011;3733;47.994;8.820;2022-10-16T04:58:31;6.30;;;3.80;;
7383;SDS011;3733;47.994;8.820;2022-10-16T05:00:58;5.17;;;3.83;;
7383;SDS011;3733;47.994;8.820;2022-10-16T05:03:23;4.20;;;3.60;;
7383;SDS011;3733;47.994;8.820;2022-10-16T05:05:49;5.40;;;4.00;;
7383;SDS011;3733;47.994;8.820;2022-10-16T05:08:15;6.60;;;4.20;;
7383;SDS011;3733;47.994;8.820;2022-10-16T05:10:41;4.40;;;3.80;;
7383;SDS011;3733;47.994;8.820;2022-10-16T05:13:09;5.97;;;4.30;;
7383;SDS011;3733;47.994;8.820;2022-10-16T05:15:35;10.63;;;3.47;;
7383;SDS011;3733;47.994;8.820;2022-10-16T05:18:00;8.90;;;3.70;;
7383;SDS011;3733;47.994;8.820;2022-10-16T05:20:26;4.70;;;4.17;;
7383;SDS011;3733;47.994;8.820;2022-10-16T05:22:52;4.57;;;3.83;;
7383;SDS011;3733;47.994;8.820;2022-10-16T05:25:17;4.60;;;3.70;;
7383;SDS011;3733;47.994;8.820;2022-10-16T05:27:43;4.07;;;3.60;;
7383;SDS011;3733;47.994;8.820;2022-10-16T05:30:12;6.20;;;3.60;;
7383;SDS011;3733;47.994;8.820;2022-10-16T05:32:37;6.73;;;4.20;;
7383;SDS011;3733;47.994;8.820;2022-10-16T05:35:03;9.60;;;3.97;;
7383;SDS011;3733;47.994;8.820;2022-10-16T05:37:29;6.60;;;4.17;;
7383;SDS011;3733;47.994;8.820;2022-10-16T05:39:55;5.97;;;3.90;;
7383;SDS011;3733;47.994;8.820;2022-10-16T05:42:20;6.33;;;4.23;;
7383;SDS011;3733;47.994;8.820;2022-10-16T05:44:46;4.70;;;4.17;;
7383;SDS011;3733;47.994;8.820;2022-10-16T05:47:14;5.33;;;4.67;;
7383;SDS011;3733;47.994;8.820;2022-10-16T05:49:40;6.83;;;4.60;;
7383;SDS011;3733;47.994;8.820;2022-10-16T05:52:06;7.63;;;4.13;;
7383;SDS011;3733;47.994;8.820;2022-10-16T05:54:31;5.47;;;4.27;;
7383;SDS011;3733;47.994;8.820;2022-10-16T05:56:57;7.80;;;4.20;;
7383;SDS011;3733;47.994;8.820;2022-10-16T05:59:22;4.40;;;3.80;;
7383;SDS011;3733;47.994;8.820;2022-10-16T06:01:48;5.40;;;3.73;;
7383;SDS011;3733;47.994;8.820;2022-10-16T06:04:14;5.00;;;3.57;;
7383;SDS011;3733;47.994;8.820;2022-10-16T06:06:39;3.63;;;3.30;;
7383;SDS011;3733;47.994;8.820;2022-10-16T06:09:05;8.80;;;3.97;;
7383;SDS011;3733;47.994;8.820;2022-10-16T06:11:31;6.73;;;3.80;;
7383;SDS011;3733;47.994;8.820;2022-10-16T06:13:58;4.00;;;3.57;;
7383;SDS011;3733;47.994;8.820;2022-10-16T06:16:31;4.83;;;3.80;;
7383;SDS011;3733;47.994;8.820;2022-10-16T06:18:58;7.50;;;4.50;;
7383;SDS011;3733;47.994;8.820;2022-10-16T06:21:25;6.97;;;4.40;;
7383;SDS011;3733;47.994;8.820;2022-10-16T06:23:51;4.67;;;4.20;;
7383;SDS011;3733;47.994;8.820;2022-10-16T06:26:18;4.80;;;3.93;;
7383;SDS011;3733;47.994;8.820;2022-10-16T06:28:45;11.93;;;5.90;;
7383;SDS011;3733;47.994;8.820;2022-10-16T06:31:11;11.87;;;6.10;;
7383;SDS011;3733;47.994;8.820;2022-10-16T06:33:37;14.40;;;6.90;;
7383;SDS011;3733;47.994;8.820;2022-10-16T06:36:08;13.33;;;8.40;;
7383;SDS011;3733;47.994;8.820;2022-10-16T06:38:35;12.40;;;7.10;;
7383;SDS011;3733;47.994;8.820;2022-10-16T06:41:02;7.57;;;4.90;;
7383;SDS011;3733;47.994;8.820;2022-10-16T06:43:29;6.10;;;5.40;;
7383;SDS011;3733;47.994;8.820;2022-10-16T06:46:00;10.23;;;4.90;;
7383;SDS011;3733;47.994;8.820;2022-10-16T06:48:27;22.10;;;6.00;;
7383;SDS011;3733;47.994;8.820;2022-10-16T06:50:55;7.90;;;5.63;;
7383;SDS011;3733;47.994;8.820;2022-10-16T06:53:31;14.63;;;5.50;;
7383;SDS011;3733;47.994;8.820;2022-10-16T06:58:35;5.83;;;4.93;;
7383;SDS011;3733;47.994;8.820;2022-10-16T07:01:02;6.40;;;4.00;;
7383;SDS011;3733;47.994;8.820;2022-10-16T07:03:28;7.70;;;5.20;;
7383;SDS011;3733;47.994;8.820;2022-10-16T07:05:54;9.30;;;5.10;;
7383;SDS011;3733;47.994;8.820;2022-10-16T07:08:19;7.37;;;5.50;;
7383;SDS011;3733;47.994;8.820;2022-10-16T07:10:45;8.03;;;6.00;;
7383;SDS011;3733;47.994;8.820;2022-10-16T07:13:11;6.07;;;5.27;;
7383;SDS011;3733;47.994;8.820;2022-10-16T07:15:39;5.70;;;4.80;;
7383;SDS011;3733;47.994;8.820;2022-10-16T07:18:05;7.40;;;4.40;;
7383;SDS011;3733;47.994;8.820;2022-10-16T07:20:31;10.03;;;4.50;;
7383;SDS011;3733;47.994;8.820;2022-10-16T07:22:57;11.43;;;5.80;;
7383;SDS011;3733;47.994;8.820;2022-10-16T07:25:23;4.90;;;4.37;;
7383;SDS011;3733;47.994;8.820;2022-10-16T07:27:49;10.73;;;4.23;;
7383;SDS011;3733;47.994;8.820;2022-10-16T07:30:14;4.73;;;4.03;;
7383;SDS011;3733;47.994;8.820;2022-10-16T07:32:40;6.17;;;4.40;;
7383;SDS011;3733;47.994;8.820;2022-10-16T07:35:06;5.80;;;4.23;;
7383;SDS011;3733;47.994;8.820;2022-10-16T07:37:32;10.63;;;5.00;;
7383;SDS011;3733;47.994;8.820;2022-10-16T07:39:58;5.43;;;4.93;;
7383;SDS011;3733;47.994;8.820;2022-10-16T07:42:23;5.40;;;4.90;;
7383;SDS011;3733;47.994;8.820;2022-10-16T07:44:49;9.97;;;6.60;;
7383;SDS011;3733;47.994;8.820;2022-10-16T07:47:14;8.83;;;6.00;;
7383;SDS011;3733;47.994;8.820;2022-10-16T07:49:40;5.93;;;4.87;;
7383;SDS011;3733;47.994;8.820;2022-10-16T07:52:06;6.00;;;4.37;;
7383;SDS011;3733;47.994;8.820;2022-10-16T07:54:32;4.70;;;4.30;;
7383;SDS011;3733;47.994;8.820;2022-10-16T07:56:57;4.90;;;3.80;;
7383;SDS011;3733;47.994;8.820;2022-10-16T07:59:23;6.37;;;3.73;;
7383;SDS011;3733;47.994;8.820;2022-10-16T08:01:49;4.30;;;3.90;;
7383;SDS011;3733;47.994;8.820;2022-10-16T08:04:15;3.67;;;3.37;;
7383;SDS011;3733;47.994;8.820;2022-10-16T08:06:40;3.67;;;3.37;;
7383;SDS011;3733;47.994;8.820;2022-10-16T08:09:07;4.50;;;4.10;;
7383;SDS011;3733;47.994;8.820;2022-10-16T08:11:33;4.33;;;3.60;;
7383;SDS011;3733;47.994;8.820;2022-10-16T08:13:59;3.70;;;3.40;;
7383;SDS011;3733;47.994;8.820;2022-10-16T08:16:25;3.00;;;2.80;;
7383;SDS011;3733;47.994;8.820;2022-10-16T08:18:50;3.83;;;3.53;;
7383;SDS011;3733;47.994;8.820;2022-10-16T08:21:17;4.00;;;3.37;;
7383;SDS011;3733;47.994;8.820;2022-10-16T08:23:45;3.40;;;3.10;;
7383;SDS011;3733;47.994;8.820;2022-10-16T08:26:11;4.90;;;3.00;;
7383;SDS011;3733;47.994;8.820;2022-10-16T08:28:38;3.50;;;3.20;;
7383;SDS011;3733;47.994;8.820;2022-10-16T08:31:11;3.60;;;3.20;;
7383;SDS011;3733;47.994;8.820;2022-10-16T08:33:39;5.43;;;3.20;;
7383;SDS011;3733;47.994;8.820;2022-10-16T08:36:07;3.80;;;3.40;;
7383;SDS011;3733;47.994;8.820;2022-10-16T08:38:34;3.60;;;3.30;;
7383;SDS011;3733;47.994;8.820;2022-10-16T08:41:13;3.30;;;2.63;;
7383;SDS011;3733;47.994;8.820;2022-10-16T08:43:55;3.03;;;2.70;;
7383;SDS011;3733;47.994;8.820;2022-10-16T08:49:15;3.43;;;2.87;;
7383;SDS011;3733;47.994;8.820;2022-10-16T08:51:41;3.60;;;2.67;;
7383;SDS011;3733;47.994;8.820;2022-10-16T08:56:56;3.10;;;2.80;;
7383;SDS011;3733;47.994;8.820;2022-10-16T08:59:26;3.30;;;3.00;;
7383;SDS011;3733;47.994;8.820;2022-10-16T09:01:52;5.07;;;2.90;;
7383;SDS011;3733;47.994;8.820;2022-10-16T09:25:30;2.93;;;2.73;;
7383;SDS011;3733;47.994;8.820;2022-10-16T09:27:57;5.17;;;2.70;;
7383;SDS011;3733;47.994;8.820;2022-10-16T09:30:25;8.47;;;3.23;;
7383;SDS011;3733;47.994;8.820;2022-10-16T09:32:54;3.50;;;3.10;;
7383;SDS011;3733;47.994;8.820;2022-10-16T09:35:27;3.53;;;3.13;;
7383;SDS011;3733;47.994;8.820;2022-10-16T09:37:56;6.57;;;3.20;;
7383;SDS011;3733;47.994;8.820;2022-10-16T09:40:35;5.07;;;3.10;;
7383;SDS011;3733;47.994;8.820;2022-10-16T09:45:43;3.30;;;2.93;;
7383;SDS011;3733;47.994;8.820;2022-10-16T09:48:50;6.03;;;3.10;;
7383;SDS011;3733;47.994;8.820;2022-10-16T09:51:39;10.20;;;3.23;;
7383;SDS011;3733;47.994;8.820;2022-10-16T09:56:36;3.73;;;3.10;;
7383;SDS011;3733;47.994;8.820;2022-10-16T10:01:43;5.87;;;3.37;;
7383;SDS011;3733;47.994;8.820;2022-10-16T10:04:17;3.83;;;2.50;;
7383;SDS011;3733;47.994;8.820;2022-10-16T10:06:45;4.60;;;2.80;;
7383;SDS011;3733;47.994;8.820;2022-10-16T10:11:46;3.10;;;2.70;;
7383;SDS011;3733;47.994;8.820;2022-10-16T10:16:38;13.43;;;4.13;;
7383;SDS011;3733;47.994;8.820;2022-10-16T10:19:04;7.57;;;3.70;;
7383;SDS011;3733;47.994;8.820;2022-10-16T10:21:37;4.20;;;2.90;;
7383;SDS011;3733;47.994;8.820;2022-10-16T10:24:03;4.17;;;3.13;;
7383;SDS011;3733;47.994;8.820;2022-10-16T10:26:30;7.77;;;3.03;;
7383;SDS011;3733;47.994;8.820;2022-10-16T10:32:02;3.40;;;3.10;;
7383;SDS011;3733;47.994;8.820;2022-10-16T10:34:39;3.30;;;3.00;;
7383;SDS011;3733;47.994;8.820;2022-10-16T10:39:48;1.90;;;1.80;;
7383;SDS011;3733;47.994;8.820;2022-10-16T10:42:36;3.33;;;2.33;;
7383;SDS011;3733;47.994;8.820;2022-10-16T10:50:43;2.20;;;2.00;;
7383;SDS011;3733;47.994;8.820;2022-10-16T10:53:51;2.80;;;1.90;;
7383;SDS011;3733;47.994;8.820;2022-10-16T11:01:59;6.77;;;2.40;;
7383;SDS011;3733;47.994;8.820;2022-10-16T11:07:21;3.63;;;2.10;;
7383;SDS011;3733;47.994;8.820;2022-10-16T11:12:57;2.60;;;2.07;;
7383;SDS011;3733;47.994;8.820;2022-10-16T11:15:35;3.10;;;2.07;;
7383;SDS011;3733;47.994;8.820;2022-10-16T11:20:38;4.40;;;2.20;;
7383;SDS011;3733;47.994;8.820;2022-10-16T11:25:45;8.10;;;2.50;;
7383;SDS011;3733;47.994;8.820;2022-10-16T11:28:20;6.27;;;2.30;;
7383;SDS011;3733;47.994;8.820;2022-10-16T11:31:00;2.40;;;1.80;;
7383;SDS011;3733;47.994;8.820;2022-10-16T11:33:46;3.47;;;2.00;;
7383;SDS011;3733;47.994;8.820;2022-10-16T11:44:42;5.00;;;1.90;;
7383;SDS011;3733;47.994;8.820;2022-10-16T11:50:00;6.43;;;1.70;;
7383;SDS011;3733;47.994;8.820;2022-10-16T11:52:36;3.07;;;1.43;;
7383;SDS011;3733;47.994;8.820;2022-10-16T11:55:14;6.30;;;1.60;;
7383;SDS011;3733;47.994;8.820;2022-10-16T11:57:43;3.50;;;1.40;;
7383;SDS011;3733;47.994;8.820;2022-10-16T12:00:24;3.10;;;1.25;;
7383;SDS011;3733;47.994;8.820;2022-10-16T12:08:24;2.70;;;1.38;;
7383;SDS011;3733;47.994;8.820;2022-10-16T12:10:50;3.72;;;1.50;;
7383;SDS011;3733;47.994;8.820;2022-10-16T12:18:37;1.90;;;1.38;;
7383;SDS011;3733;47.994;8.820;2022-10-16T12:21:10;4.13;;;1.67;;
7383;SDS011;3733;47.994;8.820;2022-10-16T12:26:30;4.07;;;1.33;;
7383;SDS011;3733;47.994;8.820;2022-10-16T12:31:46;2.35;;;1.20;;
7383;SDS011;3733;47.994;8.820;2022-10-16T12:34:14;3.42;;;1.35;;
7383;SDS011;3733;47.994;8.820;2022-10-16T12:36:48;2.17;;;1.83;;
7383;SDS011;3733;47.994;8.820;2022-10-16T12:39:21;3.67;;;1.40;;
7383;SDS011;3733;47.994;8.820;2022-10-16T12:41:59;3.88;;;1.40;;
7383;SDS011;3733;47.994;8.820;2022-10-16T12:44:26;2.22;;;1.35;;
7383;SDS011;3733;47.994;8.820;2022-10-16T12:46:58;4.50;;;1.23;;
7383;SDS011;3733;47.994;8.820;2022-10-16T12:51:56;1.93;;;1.30;;
7383;SDS011;3733;47.994;8.820;2022-10-16T13:14:10;3.63;;;1.20;;
7383;SDS011;3733;47.994;8.820;2022-10-16T13:17:02;1.40;;;1.23;;
7383;SDS011;3733;47.994;8.820;2022-10-16T13:22:23;1.60;;;1.30;;
7383;SDS011;3733;47.994;8.820;2022-10-16T13:27:52;1.30;;;1.20;;
7383;SDS011;3733;47.994;8.820;2022-10-16T13:30:44;1.47;;;1.33;;
7383;SDS011;3733;47.994;8.820;2022-10-16T13:33:21;1.63;;;1.40;;
7383;SDS011;3733;47.994;8.820;2022-10-16T13:35:56;3.00;;;1.57;;
7383;SDS011;3733;47.994;8.820;2022-10-16T13:38:26;5.33;;;1.60;;
7383;SDS011;3733;47.994;8.820;2022-10-16T13:46:02;4.67;;;1.50;;
7383;SDS011;3733;47.994;8.820;2022-10-16T13:48:30;2.60;;;1.20;;
7383;SDS011;3733;47.994;8.820;2022-10-16T13:53:26;1.50;;;1.40;;
7383;SDS011;3733;47.994;8.820;2022-10-16T13:55:51;1.93;;;1.33;;
7383;SDS011;3733;47.994;8.820;2022-10-16T13:58:17;3.80;;;1.77;;
7383;SDS011;3733;47.994;8.820;2022-10-16T14:00:55;3.67;;;1.90;;
7383;SDS011;3733;47.994;8.820;2022-10-16T14:03:23;3.20;;;1.60;;
7383;SDS011;3733;47.994;8.820;2022-10-16T14:05:51;2.83;;;1.60;;
7383;SDS011;3733;47.994;8.820;2022-10-16T14:08:19;12.73;;;3.13;;
7383;SDS011;3733;47.994;8.820;2022-10-16T14:10:52;4.43;;;2.07;;
7383;SDS011;3733;47.994;8.820;2022-10-16T14:13:22;6.40;;;1.47;;
7383;SDS011;3733;47.994;8.820;2022-10-16T14:15:56;2.37;;;1.80;;
7383;SDS011;3733;47.994;8.820;2022-10-16T14:18:25;3.23;;;1.97;;
7383;SDS011;3733;47.994;8.820;2022-10-16T14:20:52;4.13;;;1.67;;
7383;SDS011;3733;47.994;8.820;2022-10-16T14:28:37;9.60;;;3.73;;
7383;SDS011;3733;47.994;8.820;2022-10-16T14:31:25;9.00;;;5.23;;
7383;SDS011;3733;47.994;8.820;2022-10-16T14:33:50;11.77;;;3.80;;
7383;SDS011;3733;47.994;8.820;2022-10-16T14:36:16;4.37;;;3.00;;
7383;SDS011;3733;47.994;8.820;2022-10-16T14:41:25;6.40;;;3.07;;
7383;SDS011;3733;47.994;8.820;2022-10-16T14:43:52;6.63;;;3.23;;
7383;SDS011;3733;47.994;8.820;2022-10-16T14:46:20;7.77;;;3.23;;
7383;SDS011;3733;47.994;8.820;2022-10-16T14:48:57;5.17;;;2.90;;
7383;SDS011;3733;47.994;8.820;2022-10-16T14:51:27;3.10;;;2.57;;
7383;SDS011;3733;47.994;8.820;2022-10-16T14:53:52;3.13;;;2.30;;
7383;SDS011;3733;47.994;8.820;2022-10-16T14:56:22;3.43;;;2.60;;
7383;SDS011;3733;47.994;8.820;2022-10-16T14:58:49;7.07;;;2.40;;
7383;SDS011;3733;47.994;8.820;2022-10-16T15:01:16;4.50;;;2.30;;
7383;SDS011;3733;47.994;8.820;2022-10-16T15:03:42;6.63;;;1.87;;
7383;SDS011;3733;47.994;8.820;2022-10-16T15:06:12;2.23;;;1.60;;
7383;SDS011;3733;47.994;8.820;2022-10-16T15:08:38;4.50;;;1.73;;
7383;SDS011;3733;47.994;8.820;2022-10-16T15:11:04;4.80;;;2.07;;
7383;SDS011;3733;47.994;8.820;2022-10-16T15:13:35;2.60;;;1.57;;
7383;SDS011;3733;47.994;8.820;2022-10-16T15:16:00;2.37;;;1.60;;
7383;SDS011;3733;47.994;8.820;2022-10-16T15:18:26;2.57;;;2.13;;
7383;SDS011;3733;47.994;8.820;2022-10-16T15:20:51;2.03;;;1.83;;
7383;SDS011;3733;47.994;8.820;2022-10-16T15:23:18;4.43;;;2.23;;
7383;SDS011;3733;47.994;8.820;2022-10-16T15:25:47;3.63;;;2.30;;
7383;SDS011;3733;47.994;8.820;2022-10-16T15:28:17;6.73;;;2.10;;
7383;SDS011;3733;47.994;8.820;2022-10-16T15:30:44;7.10;;;2.30;;
7383;SDS011;3733;47.994;8.820;2022-10-16T15:33:18;6.93;;;2.50;;
7383;SDS011;3733;47.994;8.820;2022-10-16T15:35:47;5.03;;;2.20;;
7383;SDS011;3733;47.994;8.820;2022-10-16T15:38:13;2.37;;;1.70;;
7383;SDS011;3733;47.994;8.820;2022-10-16T15:40:40;4.10;;;1.60;;
7383;SDS011;3733;47.994;8.820;2022-10-16T15:43:06;2.80;;;1.83;;
7383;SDS011;3733;47.994;8.820;2022-10-16T15:45:31;4.23;;;2.00;;
7383;SDS011;3733;47.994;8.820;2022-10-16T15:47:57;3.43;;;2.03;;
7383;SDS011;3733;47.994;8.820;2022-10-16T15:50:23;3.83;;;2.17;;
7383;SDS011;3733;47.994;8.820;2022-10-16T15:52:49;3.73;;;2.23;;
7383;SDS011;3733;47.994;8.820;2022-10-16T15:55:16;6.30;;;1.70;;
7383;SDS011;3733;47.994;8.820;2022-10-16T15:57:43;4.67;;;2.50;;
7383;SDS011;3733;47.994;8.820;2022-10-16T16:00:11;5.57;;;3.00;;
7383;SDS011;3733;47.994;8.820;2022-10-16T16:02:38;5.47;;;2.70;;
7383;SDS011;3733;47.994;8.820;2022-10-16T16:05:05;5.20;;;3.53;;
7383;SDS011;3733;47.994;8.820;2022-10-16T16:07:36;11.70;;;6.40;;
7383;SDS011;3733;47.994;8.820;2022-10-16T16:10:04;11.93;;;6.20;;
7383;SDS011;3733;47.994;8.820;2022-10-16T16:12:31;11.20;;;5.23;;
7383;SDS011;3733;47.994;8.820;2022-10-16T16:14:57;7.80;;;6.03;;
7383;SDS011;3733;47.994;8.820;2022-10-16T16:17:23;10.83;;;6.00;;
7383;SDS011;3733;47.994;8.820;2022-10-16T16:19:49;13.17;;;5.80;;
7383;SDS011;3733;47.994;8.820;2022-10-16T16:22:15;7.03;;;5.07;;
7383;SDS011;3733;47.994;8.820;2022-10-16T16:24:41;7.50;;;3.80;;
7383;SDS011;3733;47.994;8.820;2022-10-16T16:27:06;5.83;;;3.90;;
7383;SDS011;3733;47.994;8.820;2022-10-16T16:29:32;5.13;;;3.90;;
7383;SDS011;3733;47.994;8.820;2022-10-16T16:32:01;7.07;;;5.37;;
7383;SDS011;3733;47.994;8.820;2022-10-16T16:34:27;11.03;;;5.10;;
7383;SDS011;3733;47.994;8.820;2022-10-16T16:36:54;8.70;;;5.33;;
7383;SDS011;3733;47.994;8.820;2022-10-16T16:39:20;7.90;;;4.17;;
7383;SDS011;3733;47.994;8.820;2022-10-16T16:41:46;8.03;;;5.17;;
7383;SDS011;3733;47.994;8.820;2022-10-16T16:44:13;11.80;;;5.07;;
7383;SDS011;3733;47.994;8.820;2022-10-16T16:46:39;9.27;;;5.37;;
7383;SDS011;3733;47.994;8.820;2022-10-16T16:49:06;12.13;;;5.53;;
7383;SDS011;3733;47.994;8.820;2022-10-16T16:51:32;11.97;;;5.20;;
7383;SDS011;3733;47.994;8.820;2022-10-16T16:53:58;7.03;;;5.10;;
7383;SDS011;3733;47.994;8.820;2022-10-16T16:56:24;13.10;;;4.93;;
7383;SDS011;3733;47.994;8.820;2022-10-16T16:58:52;5.47;;;4.30;;
7383;SDS011;3733;47.994;8.820;2022-10-16T17:01:19;7.10;;;3.67;;
7383;SDS011;3733;47.994;8.820;2022-10-16T17:03:46;47.03;;;20.20;;
7383;SDS011;3733;47.994;8.820;2022-10-16T17:06:14;21.70;;;10.43;;
7383;SDS011;3733;47.994;8.820;2022-10-16T17:08:40;15.70;;;6.93;;
7383;SDS011;3733;47.994;8.820;2022-10-16T17:11:11;9.03;;;5.83;;
7383;SDS011;3733;47.994;8.820;2022-10-16T17:13:41;12.70;;;7.77;;
7383;SDS011;3733;47.994;8.820;2022-10-16T17:16:07;12.10;;;4.63;;
7383;SDS011;3733;47.994;8.820;2022-10-16T17:18:33;14.43;;;4.80;;
7383;SDS011;3733;47.994;8.820;2022-10-16T17:21:03;10.87;;;5.67;;
7383;SDS011;3733;47.994;8.820;2022-10-16T17:23:31;7.67;;;6.10;;
7383;SDS011;3733;47.994;8.820;2022-10-16T17:26:02;7.77;;;5.33;;
7383;SDS011;3733;47.994;8.820;2022-10-16T17:28:28;8.03;;;5.00;;
7383;SDS011;3733;47.994;8.820;2022-10-16T17:30:54;13.80;;;6.37;;
7383;SDS011;3733;47.994;8.820;2022-10-16T17:33:20;9.10;;;6.70;;
7383;SDS011;3733;47.994;8.820;2022-10-16T17:35:46;9.00;;;6.70;;
7383;SDS011;3733;47.994;8.820;2022-10-16T17:38:12;15.80;;;8.20;;
7383;SDS011;3733;47.994;8.820;2022-10-16T17:40:38;12.90;;;6.63;;
7383;SDS011;3733;47.994;8.820;2022-10-16T17:43:05;11.70;;;6.40;;
7383;SDS011;3733;47.994;8.820;2022-10-16T17:45:31;16.60;;;8.80;;
7383;SDS011;3733;47.994;8.820;2022-10-16T17:48:00;15.53;;;9.37;;
7383;SDS011;3733;47.994;8.820;2022-10-16T17:50:26;13.23;;;8.70;;
7383;SDS011;3733;47.994;8.820;2022-10-16T17:52:52;15.10;;;9.50;;
7383;SDS011;3733;47.994;8.820;2022-10-16T17:55:17;15.17;;;9.27;;
7383;SDS011;3733;47.994;8.820;2022-10-16T17:57:44;17.70;;;9.70;;
7383;SDS011;3733;47.994;8.820;2022-10-16T18:00:09;18.93;;;9.03;;